Time;durP1;ratioP1;P1;durP2;ratioP2;P2;SDS_P1;SDS_P2;PMS_P1;PMS_P2;Temp;Humidity;BMP_temperature;BMP_pressure;BME280_temperature;BME280_humidity;BME280_pressure;Samples;Min_cycle;Max_cycle;Signal;HPM_P1;HPM_P2
2021/06/05 00:01:55;;;;;;;3.90;3.50;;;;;;;7.85;83.51;93846.62;1757364;81;20950;-89
2021/06/05 00:04:22;;;;;;;4.58;3.02;;;;;;;7.88;83.34;93850.53;1756823;81;21617;-90
2021/06/05 00:06:49;;;;;;;4.85;3.40;;;;;;;7.88;83.06;93851.30;1766455;79;21045;-90
2021/06/05 00:09:16;;;;;;;5.00;3.55;;;;;;;7.85;83.25;93844.48;1797308;79;21967;-90
2021/06/05 00:11:44;;;;;;;7.15;3.42;;;;;;;7.89;83.12;93846.09;1757557;81;21041;-88
2021/06/05 00:14:11;;;;;;;8.35;3.30;;;;;;;7.89;82.88;93843.95;1783761;80;21007;-88
2021/06/05 00:16:42;;;;;;;6.40;3.27;;;;;;;7.79;82.78;93846.17;1771132;80;21115;-90
2021/06/05 00:19:12;;;;;;;5.17;2.75;;;;;;;7.71;83.13;93844.52;1770618;78;21138;-88
2021/06/05 00:21:38;;;;;;;5.62;4.10;;;;;;;7.67;83.24;93842.34;1791253;79;21163;-89
2021/06/05 00:24:07;;;;;;;8.28;2.90;;;;;;;7.61;83.38;93851.13;1756915;81;21022;-89
2021/06/05 00:26:34;;;;;;;3.45;3.02;;;;;;;7.52;83.53;93854.09;1787085;80;21089;-91
2021/06/05 00:29:00;;;;;;;6.10;3.58;;;;;;;7.44;83.75;93848.36;1767008;80;21045;-89
2021/06/05 00:31:27;;;;;;;7.40;3.67;;;;;;;7.33;84.08;93841.44;1774229;79;20953;-90
2021/06/05 00:33:54;;;;;;;5.55;3.72;;;;;;;7.25;84.58;93847.89;1788574;79;21949;-89
2021/06/05 00:36:22;;;;;;;7.12;3.40;;;;;;;7.19;84.93;93844.73;1756767;81;21033;-90
2021/06/05 00:38:53;;;;;;;4.05;3.50;;;;;;;7.19;85.09;93846.66;1788738;80;21029;-88
2021/06/05 00:41:19;;;;;;;7.95;3.52;;;;;;;7.19;85.06;93841.25;1762284;80;21385;-89
2021/06/05 00:43:50;;;;;;;7.45;3.67;;;;;;;7.19;84.99;93839.89;1755819;81;21033;-90
2021/06/05 00:46:19;;;;;;;6.20;2.95;;;;;;;7.17;85.05;93841.59;1756525;79;21110;-89
2021/06/05 00:48:46;;;;;;;3.87;3.58;;;;;;;7.14;85.26;93840.18;1755928;81;21077;-90
2021/06/05 00:51:12;;;;;;;7.30;4.22;;;;;;;7.13;85.28;93844.04;1756791;81;21057;-88
2021/06/05 00:53:40;;;;;;;5.35;3.40;;;;;;;7.14;85.52;93839.61;1755451;81;21012;-90
2021/06/05 00:56:11;;;;;;;5.45;3.27;;;;;;;7.20;85.30;93836.81;1756758;81;21033;-89
2021/06/05 00:58:37;;;;;;;7.22;3.80;;;;;;;7.22;84.91;93831.84;1756567;81;21690;-90
2021/06/05 01:01:16;;;;;;;5.72;3.10;;;;;;;7.16;84.81;93831.92;1756550;81;21072;-89
2021/06/05 01:03:44;;;;;;;4.95;3.72;;;;;;;7.09;84.89;93831.03;1757490;80;21093;-89
2021/06/05 01:06:19;;;;;;;6.35;3.77;;;;;;;7.01;85.34;93829.56;1756949;81;21508;-88
2021/06/05 01:09:08;;;;;;;7.33;3.58;;;;;;;7.01;85.42;93831.49;1756668;81;20958;-90
2021/06/05 01:12:14;;;;;;;3.40;3.10;;;;;;;6.98;85.63;93830.86;1756648;80;21052;-89
2021/06/05 01:14:58;;;;;;;4.45;3.70;;;;;;;6.96;85.59;93829.88;1792533;78;21033;-89
2021/06/05 01:17:33;;;;;;;5.17;3.25;;;;;;;6.93;85.71;93826.55;1767169;79;21045;-90
2021/06/05 01:20:25;;;;;;;4.22;2.92;;;;;;;6.92;85.59;93821.48;1774994;80;21064;-89
2021/06/05 01:23:22;;;;;;;5.25;3.40;;;;;;;6.87;85.72;93824.50;1729201;78;21044;-88
2021/06/05 01:26:00;;;;;;;4.42;3.30;;;;;;;6.77;86.03;93817.22;1778027;79;21835;-90
2021/06/05 01:28:41;;;;;;;7.83;3.90;;;;;;;6.73;86.00;93814.22;1767429;80;21030;-89
2021/06/05 01:31:12;;;;;;;5.50;3.55;;;;;;;6.77;86.33;93817.22;1784113;80;21052;-90
2021/06/05 01:33:40;;;;;;;7.12;3.40;;;;;;;6.82;85.71;93818.83;1746667;81;21561;-88
2021/06/05 01:36:08;;;;;;;3.87;3.22;;;;;;;6.79;85.39;93816.84;1756429;81;21096;-92
2021/06/05 01:38:42;;;;;;;4.33;3.80;;;;;;;6.67;85.62;93817.03;1757571;81;21202;-90
2021/06/05 01:41:09;;;;;;;6.60;3.70;;;;;;;6.54;86.26;93813.70;1755619;81;21021;-89
2021/06/05 01:43:36;;;;;;;4.87;3.50;;;;;;;6.53;86.23;93810.80;1756157;81;21077;-89
2021/06/05 01:46:02;;;;;;;11.57;3.58;;;;;;;6.52;86.17;93809.25;1759891;79;21033;-89
2021/06/05 01:48:29;;;;;;;9.20;4.28;;;;;;;6.41;86.23;93814.45;1797266;79;21543;-89
2021/06/05 01:50:58;;;;;;;3.45;3.12;;;;;;;6.26;86.64;93816.11;1759968;79;21130;-89
2021/06/05 01:53:32;;;;;;;5.20;3.20;;;;;;;6.20;87.21;93821.59;1739972;79;21159;-91
2021/06/05 01:56:13;;;;;;;6.67;3.30;;;;;;;6.17;87.51;93817.47;1808774;78;21605;-89
2021/06/05 01:58:41;;;;;;;4.08;3.67;;;;;;;6.17;87.75;93810.17;1781269;79;21030;-89
2021/06/05 02:01:11;;;;;;;5.50;3.47;;;;;;;6.23;87.97;93814.70;1714859;80;21552;-88
2021/06/05 02:03:40;;;;;;;5.47;3.35;;;;;;;6.29;87.90;93809.23;1783670;80;21780;-89
2021/06/05 02:06:14;;;;;;;4.72;4.20;;;;;;;6.38;87.67;93811.69;1782410;80;21101;-89
2021/06/05 02:08:41;;;;;;;6.30;3.30;;;;;;;6.42;87.50;93811.19;1783431;80;21049;-89
2021/06/05 02:11:13;;;;;;;4.83;3.60;;;;;;;6.42;87.15;93816.01;1784047;80;21075;-90
2021/06/05 02:13:52;;;;;;;4.85;3.45;;;;;;;6.37;86.70;93810.91;1767969;80;21042;-90
2021/06/05 02:16:27;;;;;;;5.22;3.35;;;;;;;6.35;86.81;93811.05;1746921;81;21719;-89
2021/06/05 02:18:56;;;;;;;4.67;3.87;;;;;;;6.38;86.71;93811.11;1754842;81;21209;-89
2021/06/05 02:21:24;;;;;;;7.75;4.65;;;;;;;6.38;86.61;93808.41;1776437;80;21053;-88
2021/06/05 02:23:56;;;;;;;6.92;4.70;;;;;;;6.34;86.35;93810.27;1800154;79;21622;-88
2021/06/05 02:26:23;;;;;;;8.05;5.45;;;;;;;6.26;85.92;93812.06;1802952;79;21574;-89
2021/06/05 02:28:57;;;;;;;6.87;4.70;;;;;;;6.20;85.86;93812.70;1811738;77;21130;-88
2021/06/05 02:31:25;;;;;;;8.48;4.37;;;;;;;6.16;85.94;93809.94;1812975;79;21133;-88
2021/06/05 02:33:54;;;;;;;11.48;4.85;;;;;;;6.12;86.04;93811.80;1784675;80;21112;-89
2021/06/05 02:36:21;;;;;;;6.47;3.50;;;;;;;6.09;86.39;93813.84;1807562;79;20985;-89
2021/06/05 02:38:49;;;;;;;5.97;3.80;;;;;;;6.08;86.76;93811.72;1807570;79;21021;-89
2021/06/05 02:41:20;;;;;;;5.10;3.33;;;;;;;6.09;86.77;93807.09;1825028;77;21120;-90
2021/06/05 02:43:52;;;;;;;8.75;4.12;;;;;;;6.04;86.95;93802.00;1832608;77;20986;-88
2021/06/05 02:46:23;;;;;;;5.47;4.33;;;;;;;6.03;87.05;93804.50;1815427;77;21333;-89
2021/06/05 02:48:56;;;;;;;6.60;3.62;;;;;;;6.04;87.26;93802.78;1852391;77;20983;-89
2021/06/05 02:51:33;;;;;;;;;;;;;;;6.05;87.18;93802.98;1830237;77;20984;-88
2021/06/05 02:53:59;;;;;;;4.67;3.25;;;;;;;6.07;87.03;93804.77;1762710;78;20199;-90
2021/06/05 02:56:26;;;;;;;3.22;2.92;;;;;;;6.07;86.81;93803.42;1778722;80;20952;-90
2021/06/05 02:58:54;;;;;;;8.28;3.58;;;;;;;6.06;86.66;93804.56;1770144;80;21588;-89
2021/06/05 03:01:23;;;;;;;4.47;3.55;;;;;;;6.01;86.78;93802.70;1778405;80;21019;-89
2021/06/05 03:03:50;;;;;;;5.47;3.25;;;;;;;5.95;87.13;93800.10;1769938;80;21093;-88
2021/06/05 03:06:17;;;;;;;5.05;3.50;;;;;;;5.95;87.39;93794.70;1764215;80;21067;-88
2021/06/05 03:08:44;;;;;;;8.25;4.03;;;;;;;5.96;87.23;93798.38;1757817;78;21014;-89
2021/06/05 03:11:15;;;;;;;5.50;4.20;;;;;;;5.95;87.07;93800.88;1767685;80;21060;-88
2021/06/05 03:13:44;;;;;;;6.35;4.10;;;;;;;5.93;87.19;93797.73;1800343;77;21477;-88
2021/06/05 03:16:12;;;;;;;5.33;4.47;;;;;;;5.93;87.00;93792.91;1843000;77;21068;-89
2021/06/05 03:18:40;;;;;;;6.10;3.70;;;;;;;5.95;87.14;93794.13;1803582;77;21158;-88
2021/06/05 03:21:10;;;;;;;7.60;3.55;;;;;;;6.03;86.94;93791.77;1799550;79;20936;-89
2021/06/05 03:23:37;;;;;;;9.78;4.85;;;;;;;6.08;86.65;93800.92;1793748;78;21113;-92
2021/06/05 03:26:05;;;;;;;12.03;5.60;;;;;;;6.05;86.32;93799.50;1810472;78;21030;-88
2021/06/05 03:28:34;;;;;;;5.97;4.65;;;;;;;6.03;86.20;93800.45;1781464;80;21615;-89
2021/06/05 03:31:01;;;;;;;11.12;5.15;;;;;;;5.97;86.19;93797.81;1782150;80;21098;-88
2021/06/05 03:33:30;;;;;;;8.78;5.17;;;;;;;5.98;86.35;93804.77;1787018;80;20964;-86
2021/06/05 03:35:58;;;;;;;7.62;5.50;;;;;;;5.96;86.50;93796.25;1774881;80;21046;-87
2021/06/05 03:38:26;;;;;;;7.87;5.30;;;;;;;5.93;86.53;93793.69;1776362;80;21595;-89
2021/06/05 03:40:53;;;;;;;8.83;5.97;;;;;;;5.88;86.67;93786.44;1784096;77;21058;-87
2021/06/05 03:43:21;;;;;;;13.50;7.22;;;;;;;5.87;86.84;93788.36;1778815;80;21092;-88
2021/06/05 03:45:48;;;;;;;14.13;7.12;;;;;;;5.85;86.97;93791.97;1811228;78;21079;-88
2021/06/05 03:48:15;;;;;;;10.48;6.15;;;;;;;5.85;86.97;93787.92;1811647;79;21047;-89
2021/06/05 03:50:45;;;;;;;8.55;5.58;;;;;;;5.84;87.23;93789.84;1817719;78;21031;-86
2021/06/05 03:53:13;;;;;;;9.80;6.08;;;;;;;5.90;87.29;93777.39;1818387;78;21035;-84
2021/06/05 03:55:40;;;;;;;10.53;7.75;;;;;;;5.90;87.25;93776.05;1818912;79;21113;-87
2021/06/05 03:58:10;;;;;;;12.53;6.70;;;;;;;5.86;87.42;93788.13;1817438;78;21083;-84
2021/06/05 04:00:41;;;;;;;10.58;7.78;;;;;;;5.87;87.69;93781.61;1817260;78;21563;-87
2021/06/05 04:03:08;;;;;;;8.63;6.95;;;;;;;5.90;87.71;93786.27;1817395;79;21572;-87
2021/06/05 04:05:36;;;;;;;8.20;6.08;;;;;;;5.93;87.91;93784.24;1816515;78;21067;-84
2021/06/05 04:08:07;;;;;;;11.00;6.45;;;;;;;5.98;87.92;93795.31;1817258;78;20964;-82
2021/06/05 04:10:36;;;;;;;8.25;6.92;;;;;;;6.04;87.95;93792.55;1776351;79;20932;-84
2021/06/05 04:13:04;;;;;;;10.43;7.25;;;;;;;6.08;88.15;93788.77;1817747;78;20977;-88
2021/06/05 04:15:31;;;;;;;10.88;7.50;;;;;;;6.13;87.88;93790.97;1817213;79;21620;-86
2021/06/05 04:18:09;;;;;;;10.43;7.70;;;;;;;6.14;87.90;93782.53;1817568;78;21008;-87
2021/06/05 04:20:37;;;;;;;9.13;6.53;;;;;;;6.19;87.94;93778.17;1817758;79;21754;-85
2021/06/05 04:23:04;;;;;;;9.90;6.28;;;;;;;6.27;87.94;93780.44;1817522;79;21055;-87
2021/06/05 04:25:31;;;;;;;8.05;5.33;;;;;;;6.39;88.07;93771.38;1816890;79;21024;-86
2021/06/05 04:27:58;;;;;;;8.38;5.58;;;;;;;6.63;88.64;93772.95;1817739;78;21063;-88
2021/06/05 04:30:26;;;;;;;7.37;5.55;;;;;;;6.95;88.17;93763.98;1816430;78;21105;-88
2021/06/05 04:32:52;;;;;;;7.62;6.80;;;;;;;7.25;87.51;93764.81;1817020;78;21130;-87
2021/06/05 04:35:21;;;;;;;7.92;7.12;;;;;;;7.48;86.45;93762.61;1816270;79;21023;-88
2021/06/05 04:37:48;;;;;;;7.20;5.70;;;;;;;7.62;85.73;93756.61;1815601;78;21388;-86
2021/06/05 04:40:16;;;;;;;7.65;6.17;;;;;;;7.74;85.19;93757.14;1816310;78;21565;-89
2021/06/05 04:42:42;;;;;;;6.28;5.33;;;;;;;7.77;84.41;93750.99;1816669;79;21043;-88
2021/06/05 04:45:09;;;;;;;8.53;5.75;;;;;;;7.80;83.64;93749.48;1816573;78;21123;-86
2021/06/05 04:47:36;;;;;;;10.00;6.33;;;;;;;7.87;83.48;93748.80;1816864;78;20925;-87
2021/06/05 04:50:07;;;;;;;6.20;5.03;;;;;;;8.00;83.44;93741.39;1817148;78;21047;-89
2021/06/05 04:52:33;;;;;;;5.17;4.67;;;;;;;8.21;83.23;93749.55;1784764;79;21015;-89
2021/06/05 04:55:00;;;;;;;6.53;4.67;;;;;;;8.42;82.90;93746.28;1816301;79;21047;-87
2021/06/05 04:57:29;;;;;;;5.80;4.78;;;;;;;8.70;82.21;93737.64;1816974;79;21085;-92
2021/06/05 04:59:55;;;;;;;5.60;4.60;;;;;;;9.08;81.91;93735.02;1816796;78;20952;-88
2021/06/05 05:02:22;;;;;;;6.75;4.33;;;;;;;9.61;81.10;93726.39;1818435;78;21093;-86
2021/06/05 05:04:48;;;;;;;4.15;3.80;;;;;;;10.04;79.91;93725.21;1817747;78;21058;-88
2021/06/05 05:07:19;;;;;;;4.25;3.80;;;;;;;10.35;78.30;93727.05;1818804;78;21074;-91
2021/06/05 05:09:49;;;;;;;4.47;4.00;;;;;;;10.53;76.49;93723.78;1818553;78;20952;-91
2021/06/05 05:12:17;;;;;;;5.05;4.33;;;;;;;10.76;75.41;93717.97;1819183;78;20964;-89
2021/06/05 05:14:43;;;;;;;5.95;3.65;;;;;;;11.15;74.60;93716.56;1817072;79;21553;-85
2021/06/05 05:17:10;;;;;;;8.60;3.90;;;;;;;11.61;72.77;93708.88;1816677;78;21031;-82
2021/06/05 05:19:38;;;;;;;4.47;3.52;;;;;;;11.92;70.14;93714.61;1812561;78;20941;-87
2021/06/05 05:22:06;;;;;;;3.47;3.17;;;;;;;12.14;69.43;93700.30;1815769;78;21651;-85
2021/06/05 05:24:33;;;;;;;6.30;3.77;;;;;;;12.40;68.59;93706.58;1816243;78;21090;-87
2021/06/05 05:26:59;;;;;;;5.47;3.40;;;;;;;12.59;68.25;93702.55;1817049;79;21054;-87
2021/06/05 05:29:28;;;;;;;5.90;3.70;;;;;;;12.79;67.17;93696.59;1815381;78;21058;-87
2021/06/05 05:32:05;;;;;;;5.85;3.50;;;;;;;13.16;66.82;93696.44;1817001;79;21042;-87
2021/06/05 05:34:36;;;;;;;7.50;3.95;;;;;;;13.67;65.57;93692.06;1780973;80;21039;-86
2021/06/05 05:37:04;;;;;;;6.17;3.55;;;;;;;14.15;63.95;93690.48;1775101;80;21545;-86
2021/06/05 05:39:31;;;;;;;4.05;3.65;;;;;;;14.40;61.72;93688.77;1786954;79;21093;-87
2021/06/05 05:41:57;;;;;;;4.83;4.10;;;;;;;14.41;61.17;93685.45;1788405;79;21062;-88
2021/06/05 05:44:24;;;;;;;14.33;7.42;;;;;;;14.37;61.66;93691.55;1774819;78;22298;-87
2021/06/05 05:46:50;;;;;;;4.53;3.52;;;;;;;14.34;61.18;93687.70;1787947;80;21093;-85
2021/06/05 05:49:19;;;;;;;9.30;3.40;;;;;;;14.28;60.90;93681.90;1778588;80;21371;-86
2021/06/05 05:51:46;;;;;;;3.98;3.65;;;;;;;14.41;60.86;93681.36;1791655;77;21175;-86
2021/06/05 05:54:13;;;;;;;6.25;3.98;;;;;;;14.69;60.19;93684.28;1809372;77;21085;-86
2021/06/05 05:56:41;;;;;;;5.95;3.58;;;;;;;15.04;58.81;93671.40;1766894;79;21564;-86
2021/06/05 05:59:08;;;;;;;5.50;5.00;;;;;;;15.45;57.86;93679.08;1767787;80;21107;-85
2021/06/05 06:01:35;;;;;;;6.42;3.83;;;;;;;15.78;56.31;93670.46;1849477;77;20975;-88
2021/06/05 06:04:02;;;;;;;5.62;3.77;;;;;;;16.01;54.75;93671.75;1812460;77;21121;-90
2021/06/05 06:06:31;;;;;;;5.42;3.50;;;;;;;16.24;54.07;93668.13;1782705;79;21035;-86
2021/06/05 06:08:59;;;;;;;6.60;3.12;;;;;;;16.43;54.21;93664.39;1736789;80;21039;-91
2021/06/05 06:11:30;;;;;;;6.17;3.67;;;;;;;16.59;54.16;93658.95;1766959;78;21022;-88
2021/06/05 06:13:58;;;;;;;4.87;4.35;;;;;;;16.71;54.24;93657.49;1768274;80;20916;-89
2021/06/05 06:16:24;;;;;;;4.00;3.60;;;;;;;16.83;54.31;93654.09;1766618;79;21057;-88
2021/06/05 06:18:52;;;;;;;5.33;3.70;;;;;;;16.94;53.52;93657.95;1766975;80;21086;-89
2021/06/05 06:21:20;;;;;;;3.72;3.42;;;;;;;16.95;52.25;93649.88;1766382;80;21549;-86
2021/06/05 06:23:47;;;;;;;3.00;2.75;;;;;;;16.96;52.59;93647.29;1768475;81;21172;-88
2021/06/05 06:28:45;;;;;;;3.92;3.60;;;;;;;17.16;53.44;93641.72;1782859;80;21166;-92
2021/06/05 06:31:21;;;;;;;4.35;3.10;;;;;;;17.37;52.04;93635.64;1841956;76;21498;-85
2021/06/05 06:33:47;;;;;;;3.27;2.98;;;;;;;17.56;50.15;93630.44;1823629;77;21028;-89
2021/06/05 06:36:14;;;;;;;3.40;3.10;;;;;;;17.64;49.91;93628.45;1795889;78;21118;-83
2021/06/05 06:38:44;;;;;;;3.40;3.10;;;;;;;17.67;48.43;93629.55;1831478;77;21030;-91
2021/06/05 06:43:49;;;;;;;5.72;2.98;;;;;;;17.71;50.02;93626.09;1774887;80;21586;-86
2021/06/05 06:46:21;;;;;;;3.17;2.62;;;;;;;17.80;49.87;93620.77;1780472;79;21080;-87
2021/06/05 06:48:50;;;;;;;3.25;3.00;;;;;;;17.89;49.68;93627.77;1777308;79;21109;-87
2021/06/05 06:51:16;;;;;;;3.12;2.83;;;;;;;17.94;48.11;93625.08;1795168;79;21087;-87
2021/06/05 06:53:50;;;;;;;4.08;3.22;;;;;;;18.00;49.05;93626.09;1839838;77;21535;-86
2021/06/05 06:56:15;;;;;;;4.35;3.30;;;;;;;18.11;49.25;93623.03;1762937;81;21109;-90
2021/06/05 06:58:42;;;;;;;3.00;2.80;;;;;;;18.25;46.69;93623.22;1770485;80;21103;-89
2021/06/05 07:01:11;;;;;;;3.92;2.72;;;;;;;18.31;45.60;93626.34;1789732;78;21238;-89
2021/06/05 07:03:38;;;;;;;2.92;2.72;;;;;;;18.35;46.08;93620.73;1802939;77;21543;-87
2021/06/05 07:06:06;;;;;;;3.52;3.17;;;;;;;18.32;46.56;93614.75;1764234;80;21536;-88
2021/06/05 07:08:38;;;;;;;4.35;2.87;;;;;;;18.33;47.47;93607.42;1762224;80;21081;-86
2021/06/05 07:11:11;;;;;;;23.38;6.47;;;;;;;18.35;46.61;93602.23;1747197;81;21069;-85
2021/06/05 07:13:39;;;;;;;6.58;2.87;;;;;;;18.38;45.57;93599.98;1831900;77;21974;-87
2021/06/05 07:16:08;;;;;;;5.97;2.80;;;;;;;18.45;46.19;93605.27;1804885;77;21006;-85
2021/06/05 07:18:35;;;;;;;3.80;2.47;;;;;;;18.56;43.72;93602.79;1778814;80;21037;-87
2021/06/05 07:21:05;;;;;;;3.85;2.85;;;;;;;18.65;44.47;93591.86;1775723;80;21034;-87
2021/06/05 07:23:34;;;;;;;4.03;2.58;;;;;;;18.76;44.42;93592.32;1750424;80;21078;-89
2021/06/05 07:26:05;;;;;;;9.20;2.77;;;;;;;18.86;44.22;93589.83;1775252;80;21081;-85
2021/06/05 07:28:36;;;;;;;3.17;2.50;;;;;;;18.95;44.17;93585.63;1773041;80;21604;-86
2021/06/05 07:31:04;;;;;;;5.28;2.62;;;;;;;19.13;42.71;93589.32;1773210;80;21018;-86
2021/06/05 07:33:30;;;;;;;3.55;2.65;;;;;;;19.35;43.40;93592.73;1773938;80;21067;-88
2021/06/05 07:36:01;;;;;;;4.58;2.62;;;;;;;19.46;42.12;93583.47;1773860;78;21350;-85
2021/06/05 07:38:28;;;;;;;2.67;2.40;;;;;;;19.48;41.81;93583.02;1769932;81;21074;-89
2021/06/05 07:40:56;;;;;;;2.85;2.50;;;;;;;19.45;41.24;93577.80;1775415;80;21128;-89
2021/06/05 07:43:25;;;;;;;2.47;2.27;;;;;;;19.31;41.69;93577.69;1775512;80;21046;-88
2021/06/05 07:45:54;;;;;;;2.15;2.05;;;;;;;19.17;42.12;93582.31;1773354;80;21289;-88
2021/06/05 07:48:23;;;;;;;5.90;2.62;;;;;;;18.98;40.61;93571.73;1772900;80;21511;-89
2021/06/05 07:50:49;;;;;;;4.47;2.25;;;;;;;18.79;41.31;93573.53;1772520;80;21106;-87
2021/06/05 07:53:16;;;;;;;2.77;2.58;;;;;;;18.63;40.98;93571.66;1773227;80;21454;-87
2021/06/05 07:55:42;;;;;;;3.60;2.37;;;;;;;18.46;40.03;93571.62;1773686;80;20958;-87
2021/06/05 07:58:10;;;;;;;2.27;2.08;;;;;;;18.35;39.48;93574.70;1775363;80;21078;-86
2021/06/05 08:00:37;;;;;;;3.40;2.42;;;;;;;18.26;40.58;93574.61;1772729;79;21030;-87
2021/06/05 08:03:04;;;;;;;4.92;2.22;;;;;;;18.23;41.23;93567.83;1776859;77;21117;-84
2021/06/05 08:05:31;;;;;;;3.10;2.37;;;;;;;18.22;41.87;93565.69;1847404;77;21046;-87
2021/06/05 08:07:59;;;;;;;2.22;2.12;;;;;;;18.20;42.35;93566.72;1785597;77;21053;-87
2021/06/05 08:10:26;;;;;;;12.63;3.80;;;;;;;18.20;41.99;93568.09;1775707;80;21054;-83
2021/06/05 08:12:54;;;;;;;4.05;2.58;;;;;;;18.16;42.47;93567.44;1774306;80;21094;-87
2021/06/05 08:15:29;;;;;;;4.95;3.02;;;;;;;18.09;42.05;93562.95;1774385;80;21108;-86
2021/06/05 08:17:56;;;;;;;2.87;2.52;;;;;;;18.03;41.32;93566.06;1739192;82;21101;-85
2021/06/05 08:20:28;;;;;;;5.70;3.47;;;;;;;17.93;41.26;93566.54;1799298;79;21419;-88
2021/06/05 08:22:59;;;;;;;3.33;2.12;;;;;;;17.83;41.94;93564.12;1755538;80;21023;-89
2021/06/05 08:25:25;;;;;;;7.05;2.60;;;;;;;17.73;41.76;93557.08;1794562;78;21028;-85
2021/06/05 08:27:54;;;;;;;3.60;2.50;;;;;;;17.67;41.62;93562.17;1773790;80;21080;-88
2021/06/05 08:30:27;;;;;;;2.52;2.33;;;;;;;17.64;42.31;93560.30;1786939;79;21166;-87
2021/06/05 08:32:54;;;;;;;3.80;2.72;;;;;;;17.61;42.92;93557.83;1775530;79;21042;-87
2021/06/05 08:35:20;;;;;;;2.75;2.15;;;;;;;17.57;43.41;93563.27;1779751;79;21053;-85
2021/06/05 08:37:47;;;;;;;4.40;2.00;;;;;;;17.54;43.02;93564.14;1775606;80;21592;-88
2021/06/05 08:40:18;;;;;;;4.10;2.47;;;;;;;17.48;43.28;93561.14;1754114;81;21183;-87
2021/06/05 08:42:51;;;;;;;7.35;2.50;;;;;;;17.43;44.31;93559.70;1754222;81;21076;-87
2021/06/05 08:45:24;;;;;;;5.22;2.08;;;;;;;17.35;44.69;93555.61;1754231;81;21927;-86
2021/06/05 08:47:50;;;;;;;3.25;2.67;;;;;;;17.29;45.20;93559.33;1754592;81;21002;-85
2021/06/05 08:50:23;;;;;;;5.78;2.30;;;;;;;17.20;43.95;93566.22;1758117;80;21765;-86
2021/06/05 08:53:17;;;;;;;6.58;3.17;;;;;;;17.13;44.76;93569.77;1797658;79;20994;-89
2021/06/05 08:55:54;;;;;;;8.10;3.90;;;;;;;17.06;46.74;93566.59;1805339;78;21583;-87
2021/06/05 08:58:40;;;;;;;6.95;3.83;;;;;;;16.96;48.43;93569.80;1811204;79;21089;-88
2021/06/05 09:01:15;;;;;;;4.05;3.02;;;;;;;16.90;49.73;93572.12;1818512;77;21108;-88
2021/06/05 09:03:42;;;;;;;29.95;4.40;;;;;;;16.79;49.50;93566.91;1786567;80;21054;-88
2021/06/05 09:06:11;;;;;;;8.80;3.27;;;;;;;16.72;50.14;93566.45;1786278;80;21132;-90
2021/06/05 09:08:38;;;;;;;3.42;2.90;;;;;;;16.65;50.66;93567.99;1813633;79;21875;-91
2021/06/05 09:11:06;;;;;;;3.87;3.25;;;;;;;16.59;50.94;93564.23;1782438;79;21016;-90
2021/06/05 09:13:38;;;;;;;6.67;3.52;;;;;;;16.53;52.03;93572.80;1782025;79;20989;-88
2021/06/05 09:16:28;;;;;;;5.95;3.87;;;;;;;16.47;53.86;93574.52;1781810;79;21069;-89
2021/06/05 09:19:14;;;;;;;5.78;3.65;;;;;;;16.38;54.64;93572.38;1732332;81;21309;-87
2021/06/05 09:21:50;;;;;;;4.97;3.35;;;;;;;16.24;55.71;93570.73;1730801;80;21144;-90
2021/06/05 09:24:40;;;;;;;3.50;2.70;;;;;;;16.11;54.64;93572.61;1778766;80;21194;-89
2021/06/05 09:27:14;;;;;;;4.92;2.95;;;;;;;15.94;53.94;93583.37;1730944;82;20971;-89
2021/06/05 09:30:02;;;;;;;3.60;3.17;;;;;;;15.76;55.38;93588.65;1755850;80;21120;-89
2021/06/05 09:33:03;;;;;;;5.78;3.15;;;;;;;15.61;55.75;93592.05;1784522;79;21221;-88
2021/06/05 09:35:33;;;;;;;5.42;3.00;;;;;;;15.46;56.29;93588.86;1820129;77;21080;-90
2021/06/05 09:38:34;;;;;;;7.55;3.42;;;;;;;15.33;58.91;93590.66;1814381;79;21488;-89
2021/06/05 09:41:19;;;;;;;6.92;3.80;;;;;;;15.25;60.85;93594.91;1816216;78;21032;-88
2021/06/05 09:43:48;;;;;;;4.70;3.62;;;;;;;15.14;63.38;93597.08;1825682;77;21112;-87
2021/06/05 09:46:31;;;;;;;4.72;3.67;;;;;;;15.02;64.27;93588.88;1812074;79;21159;-88
2021/06/05 09:49:19;;;;;;;7.00;3.50;;;;;;;14.95;64.69;93593.71;1819810;77;21106;-89
2021/06/05 09:52:13;;;;;;;6.65;4.00;;;;;;;14.90;65.57;93588.73;1839056;77;21509;-88
2021/06/05 09:54:48;;;;;;;4.05;3.60;;;;;;;14.87;65.84;93586.82;1805442;78;21018;-88
2021/06/05 10:00:18;;;;;;;6.00;4.35;;;;;;;14.86;65.74;93589.39;1796172;79;22022;-87
2021/06/05 10:02:48;;;;;;;6.03;3.52;;;;;;;14.86;65.49;93589.39;1811618;77;21818;-87
2021/06/05 10:05:34;;;;;;;4.65;4.10;;;;;;;14.86;66.16;93585.28;1815397;78;21006;-86
2021/06/05 10:08:33;;;;;;;5.22;3.85;;;;;;;14.86;66.60;93594.86;1817514;77;21098;-90
2021/06/05 10:11:23;;;;;;;10.72;6.72;;;;;;;14.86;67.40;93597.60;1836190;76;21066;-89
2021/06/05 10:14:00;;;;;;;9.60;5.05;;;;;;;14.82;70.09;93597.66;1800862;78;21132;-87
2021/06/05 10:16:27;;;;;;;7.30;4.30;;;;;;;14.75;70.74;93605.99;1793288;77;21014;-89
2021/06/05 10:19:30;;;;;;;5.37;3.83;;;;;;;14.70;71.19;93604.48;1810642;79;21037;-88
2021/06/05 10:21:57;;;;;;;6.25;4.28;;;;;;;14.68;70.95;93601.41;1758824;77;21448;-87
2021/06/05 10:24:38;;;;;;;6.70;4.22;;;;;;;14.65;71.87;93601.46;1839075;78;21035;-88
2021/06/05 10:27:17;;;;;;;6.30;4.60;;;;;;;14.64;71.64;93598.55;1782000;79;21084;-88
2021/06/05 10:29:50;;;;;;;5.72;5.00;;;;;;;14.62;72.70;93607.16;1780209;79;21038;-87
2021/06/05 10:32:21;;;;;;;7.95;5.42;;;;;;;14.61;73.39;93603.48;1818035;78;21106;-87
2021/06/05 10:35:12;;;;;;;8.70;5.87;;;;;;;14.59;73.62;93592.94;1777963;79;20911;-87
2021/06/05 10:37:39;;;;;;;8.80;4.67;;;;;;;14.61;73.30;93599.37;1816303;78;21049;-88
2021/06/05 10:40:15;;;;;;;17.17;5.15;;;;;;;14.61;73.48;93593.31;1822788;78;21779;-88
2021/06/05 10:45:15;;;;;;;6.53;4.15;;;;;;;14.61;74.30;93595.27;1780640;79;21056;-87
2021/06/05 10:47:52;;;;;;;5.47;3.60;;;;;;;14.59;74.76;93587.47;1765264;80;21040;-87
2021/06/05 10:50:28;;;;;;;7.15;5.08;;;;;;;14.57;74.96;93589.27;1771621;80;21081;-89
2021/06/05 10:53:09;;;;;;;5.87;5.25;;;;;;;14.57;75.00;93584.39;1768213;79;21275;-87
2021/06/05 10:55:49;;;;;;;6.28;4.72;;;;;;;14.57;74.87;93589.27;1778406;79;21070;-86
2021/06/05 10:58:29;;;;;;;5.22;3.92;;;;;;;14.57;74.50;93582.42;1779131;79;20970;-88
2021/06/05 11:00:59;;;;;;;5.72;4.60;;;;;;;14.56;74.03;93590.45;1773178;80;21045;-86
2021/06/05 11:03:31;;;;;;;5.45;4.08;;;;;;;14.56;74.48;93588.32;1803463;78;21052;-87
2021/06/05 11:06:02;;;;;;;6.28;4.25;;;;;;;14.57;74.35;93586.52;1775179;78;21568;-86
2021/06/05 11:08:49;;;;;;;4.62;4.22;;;;;;;14.56;74.22;93588.32;1787967;79;21054;-87
2021/06/05 11:11:36;;;;;;;4.40;3.87;;;;;;;14.55;73.70;93582.65;1824263;78;21533;-87
2021/06/05 11:14:24;;;;;;;6.15;3.90;;;;;;;14.57;72.94;93589.27;1797599;77;21560;-87
2021/06/05 11:17:20;;;;;;;4.17;3.40;;;;;;;14.55;71.06;93586.19;1762387;80;21053;-89
2021/06/05 11:19:53;;;;;;;4.25;3.65;;;;;;;14.56;71.51;93584.22;1807165;76;21063;-88
2021/06/05 11:22:26;;;;;;;6.55;3.85;;;;;;;14.54;72.94;93589.31;1831571;77;21174;-86
2021/06/05 11:24:59;;;;;;;9.03;5.25;;;;;;;14.54;72.86;93589.31;1766346;80;21359;-87
2021/06/05 11:30:25;;;;;;;4.20;3.85;;;;;;;14.49;74.26;93593.31;1852337;76;22427;-77
2021/06/05 11:33:00;;;;;;;7.65;4.08;;;;;;;14.43;75.13;93593.56;1780013;79;21041;-80
2021/06/05 11:35:53;;;;;;;8.08;3.40;;;;;;;14.40;75.59;93591.65;1754342;79;21131;-83
2021/06/05 11:38:25;;;;;;;3.58;3.22;;;;;;;14.34;76.20;93598.20;1819212;77;21058;-83
2021/06/05 11:41:04;;;;;;;5.25;4.20;;;;;;;14.29;77.84;93591.04;1823209;78;21101;-85
2021/06/05 11:43:36;;;;;;;5.42;4.37;;;;;;;14.24;79.00;93594.25;1791679;79;21093;-85
2021/06/05 11:46:24;;;;;;;5.80;5.17;;;;;;;14.17;79.49;93593.76;1818459;78;21211;-81
2021/06/05 11:49:01;;;;;;;7.22;3.95;;;;;;;14.15;80.52;93595.38;1806450;79;21053;-82
2021/06/05 11:51:41;;;;;;;4.97;4.30;;;;;;;14.11;81.44;93591.33;1772776;80;21061;-85
2021/06/05 11:54:18;;;;;;;4.78;3.80;;;;;;;14.08;82.51;93589.41;1766227;80;21078;-84
2021/06/05 11:56:57;;;;;;;5.70;4.08;;;;;;;14.06;83.16;93588.44;1762833;79;21045;-85
2021/06/05 11:59:41;;;;;;;6.33;3.98;;;;;;;14.07;83.03;93590.61;1772184;79;21030;-81
2021/06/05 12:02:24;;;;;;;4.22;3.77;;;;;;;14.10;82.84;93589.76;1771428;79;21117;-85
2021/06/05 12:04:54;;;;;;;5.30;4.50;;;;;;;14.09;81.98;93591.72;1763586;79;21041;-84
2021/06/05 12:07:36;;;;;;;6.60;3.90;;;;;;;14.12;82.24;93587.99;1763578;79;20998;-86
2021/06/05 12:10:06;;;;;;;4.67;4.28;;;;;;;14.13;81.48;93590.91;1772567;80;21025;-83
2021/06/05 12:12:40;;;;;;;4.58;4.12;;;;;;;14.11;82.54;93595.43;1756136;81;21055;-85